sensor_id;sensor_type;location;lat;lon;timestamp;P1;durP1;ratioP1;P2;durP2;ratioP2
37299;SDS011;23184;51.902;12.836;2023-04-01T00:01:09;8.38;;;1.38;;
37299;SDS011;23184;51.902;12.836;2023-04-01T00:03:38;5.68;;;1.48;;
37299;SDS011;23184;51.902;12.836;2023-04-01T00:06:04;6.15;;;1.63;;
37299;SDS011;23184;51.902;12.836;2023-04-01T00:08:30;6.30;;;1.50;;
37299;SDS011;23184;51.902;12.836;2023-04-01T00:10:55;7.43;;;1.65;;
37299;SDS011;23184;51.902;12.836;2023-04-01T00:13:22;6.13;;;1.50;;
37299;SDS011;23184;51.902;12.836;2023-04-01T00:15:48;5.43;;;1.40;;
37299;SDS011;23184;51.902;12.836;2023-04-01T00:18:14;5.90;;;1.73;;
37299;SDS011;23184;51.902;12.836;2023-04-01T00:20:44;3.25;;;1.48;;
37299;SDS011;23184;51.902;12.836;2023-04-01T00:23:10;8.40;;;1.52;;
37299;SDS011;23184;51.902;12.836;2023-04-01T00:25:36;7.32;;;1.60;;
37299;SDS011;23184;51.902;12.836;2023-04-01T00:28:01;6.70;;;1.58;;
37299;SDS011;23184;51.902;12.836;2023-04-01T00:30:27;7.43;;;1.48;;
37299;SDS011;23184;51.902;12.836;2023-04-01T00:32:53;8.80;;;1.80;;
37299;SDS011;23184;51.902;12.836;2023-04-01T00:35:19;8.88;;;2.03;;
37299;SDS011;23184;51.902;12.836;2023-04-01T00:37:44;7.72;;;1.77;;
37299;SDS011;23184;51.902;12.836;2023-04-01T00:40:20;7.07;;;1.63;;
37299;SDS011;23184;51.902;12.836;2023-04-01T00:42:58;7.47;;;2.13;;
37299;SDS011;23184;51.902;12.836;2023-04-01T00:45:28;8.77;;;2.67;;
37299;SDS011;23184;51.902;12.836;2023-04-01T00:48:02;6.28;;;2.10;;
37299;SDS011;23184;51.902;12.836;2023-04-01T00:50:36;7.35;;;1.90;;
37299;SDS011;23184;51.902;12.836;2023-04-01T00:53:03;5.75;;;1.70;;
37299;SDS011;23184;51.902;12.836;2023-04-01T00:55:32;5.18;;;1.60;;
37299;SDS011;23184;51.902;12.836;2023-04-01T00:58:00;9.55;;;2.35;;
37299;SDS011;23184;51.902;12.836;2023-04-01T01:00:28;6.47;;;1.95;;
37299;SDS011;23184;51.902;12.836;2023-04-01T01:02:53;8.57;;;2.42;;
37299;SDS011;23184;51.902;12.836;2023-04-01T01:05:20;8.88;;;1.98;;
37299;SDS011;23184;51.902;12.836;2023-04-01T01:10:36;9.15;;;1.77;;
37299;SDS011;23184;51.902;12.836;2023-04-01T01:15:53;6.70;;;2.17;;
37299;SDS011;23184;51.902;12.836;2023-04-01T01:37:39;9.85;;;2.13;;
37299;SDS011;23184;51.902;12.836;2023-04-01T01:40:08;10.18;;;2.47;;
37299;SDS011;23184;51.902;12.836;2023-04-01T01:42:37;9.32;;;2.55;;
37299;SDS011;23184;51.902;12.836;2023-04-01T01:45:05;8.73;;;2.47;;
37299;SDS011;23184;51.902;12.836;2023-04-01T01:47:32;7.22;;;2.28;;
37299;SDS011;23184;51.902;12.836;2023-04-01T01:49:59;7.25;;;2.55;;
37299;SDS011;23184;51.902;12.836;2023-04-01T01:52:26;13.30;;;2.35;;
37299;SDS011;23184;51.902;12.836;2023-04-01T01:54:56;8.35;;;2.63;;
37299;SDS011;23184;51.902;12.836;2023-04-01T01:57:28;11.25;;;2.30;;
37299;SDS011;23184;51.902;12.836;2023-04-01T02:00:07;6.18;;;2.10;;
37299;SDS011;23184;51.902;12.836;2023-04-01T02:02:41;9.70;;;2.80;;
37299;SDS011;23184;51.902;12.836;2023-04-01T02:05:10;7.53;;;2.58;;
37299;SDS011;23184;51.902;12.836;2023-04-01T02:07:41;7.53;;;2.63;;
37299;SDS011;23184;51.902;12.836;2023-04-01T02:10:12;7.40;;;2.55;;
37299;SDS011;23184;51.902;12.836;2023-04-01T02:12:38;9.50;;;2.50;;
37299;SDS011;23184;51.902;12.836;2023-04-01T02:15:06;7.55;;;2.60;;
37299;SDS011;23184;51.902;12.836;2023-04-01T02:17:34;12.80;;;3.08;;
37299;SDS011;23184;51.902;12.836;2023-04-01T02:20:04;11.27;;;2.85;;
37299;SDS011;23184;51.902;12.836;2023-04-01T02:22:34;11.43;;;3.08;;
37299;SDS011;23184;51.902;12.836;2023-04-01T02:25:14;7.70;;;3.13;;
37299;SDS011;23184;51.902;12.836;2023-04-01T02:27:43;11.75;;;3.25;;
37299;SDS011;23184;51.902;12.836;2023-04-01T02:30:10;12.40;;;3.67;;
37299;SDS011;23184;51.902;12.836;2023-04-01T02:32:40;10.00;;;3.65;;
37299;SDS011;23184;51.902;12.836;2023-04-01T02:35:10;7.55;;;3.00;;
37299;SDS011;23184;51.902;12.836;2023-04-01T02:37:38;8.50;;;3.15;;
37299;SDS011;23184;51.902;12.836;2023-04-01T02:40:07;11.82;;;3.55;;
37299;SDS011;23184;51.902;12.836;2023-04-01T02:42:35;10.88;;;3.50;;
37299;SDS011;23184;51.902;12.836;2023-04-01T02:45:01;11.52;;;3.00;;
37299;SDS011;23184;51.902;12.836;2023-04-01T02:47:28;15.45;;;3.95;;
37299;SDS011;23184;51.902;12.836;2023-04-01T02:49:54;13.63;;;3.05;;
37299;SDS011;23184;51.902;12.836;2023-04-01T02:52:23;10.18;;;3.65;;
37299;SDS011;23184;51.902;12.836;2023-04-01T02:54:49;8.32;;;3.22;;
37299;SDS011;23184;51.902;12.836;2023-04-01T02:57:15;10.95;;;2.78;;
37299;SDS011;23184;51.902;12.836;2023-04-01T02:59:40;9.30;;;2.88;;
37299;SDS011;23184;51.902;12.836;2023-04-01T03:02:06;7.47;;;2.60;;
37299;SDS011;23184;51.902;12.836;2023-04-01T03:04:32;11.60;;;3.00;;
37299;SDS011;23184;51.902;12.836;2023-04-01T03:06:57;7.70;;;2.53;;
37299;SDS011;23184;51.902;12.836;2023-04-01T03:09:23;11.68;;;2.40;;
37299;SDS011;23184;51.902;12.836;2023-04-01T03:11:48;10.13;;;2.85;;
37299;SDS011;23184;51.902;12.836;2023-04-01T03:14:14;6.82;;;2.38;;
37299;SDS011;23184;51.902;12.836;2023-04-01T03:16:39;12.15;;;2.75;;
37299;SDS011;23184;51.902;12.836;2023-04-01T03:19:05;9.50;;;2.45;;
37299;SDS011;23184;51.902;12.836;2023-04-01T03:21:30;7.90;;;2.53;;
37299;SDS011;23184;51.902;12.836;2023-04-01T03:23:56;7.22;;;2.38;;
37299;SDS011;23184;51.902;12.836;2023-04-01T03:26:21;10.25;;;3.13;;
37299;SDS011;23184;51.902;12.836;2023-04-01T03:28:47;4.45;;;2.17;;
37299;SDS011;23184;51.902;12.836;2023-04-01T03:31:13;8.82;;;3.00;;
37299;SDS011;23184;51.902;12.836;2023-04-01T03:33:40;9.13;;;2.83;;
37299;SDS011;23184;51.902;12.836;2023-04-01T03:36:06;7.47;;;2.30;;
37299;SDS011;23184;51.902;12.836;2023-04-01T03:38:35;7.03;;;2.40;;
37299;SDS011;23184;51.902;12.836;2023-04-01T03:41:01;8.30;;;2.55;;
37299;SDS011;23184;51.902;12.836;2023-04-01T03:43:27;6.22;;;2.17;;
37299;SDS011;23184;51.902;12.836;2023-04-01T03:45:52;9.13;;;3.03;;
37299;SDS011;23184;51.902;12.836;2023-04-01T03:48:19;11.38;;;2.55;;
37299;SDS011;23184;51.902;12.836;2023-04-01T03:50:45;10.30;;;3.20;;
37299;SDS011;23184;51.902;12.836;2023-04-01T03:53:11;6.35;;;2.83;;
37299;SDS011;23184;51.902;12.836;2023-04-01T03:55:37;13.60;;;3.42;;
37299;SDS011;23184;51.902;12.836;2023-04-01T03:58:03;7.85;;;2.88;;
37299;SDS011;23184;51.902;12.836;2023-04-01T04:00:30;7.00;;;2.50;;
37299;SDS011;23184;51.902;12.836;2023-04-01T04:02:55;10.65;;;2.72;;
37299;SDS011;23184;51.902;12.836;2023-04-01T04:05:22;10.25;;;2.67;;
37299;SDS011;23184;51.902;12.836;2023-04-01T04:07:48;8.68;;;2.42;;
37299;SDS011;23184;51.902;12.836;2023-04-01T04:10:14;7.68;;;2.85;;
37299;SDS011;23184;51.902;12.836;2023-04-01T04:12:40;6.78;;;2.70;;
37299;SDS011;23184;51.902;12.836;2023-04-01T04:15:06;10.20;;;2.80;;
37299;SDS011;23184;51.902;12.836;2023-04-01T04:17:32;6.30;;;2.95;;
37299;SDS011;23184;51.902;12.836;2023-04-01T04:19:58;9.43;;;2.33;;
37299;SDS011;23184;51.902;12.836;2023-04-01T04:22:23;9.15;;;2.60;;
37299;SDS011;23184;51.902;12.836;2023-04-01T04:24:49;7.00;;;2.80;;
37299;SDS011;23184;51.902;12.836;2023-04-01T04:27:14;10.82;;;2.58;;
37299;SDS011;23184;51.902;12.836;2023-04-01T04:29:40;8.18;;;2.45;;
37299;SDS011;23184;51.902;12.836;2023-04-01T04:32:06;9.35;;;3.03;;
37299;SDS011;23184;51.902;12.836;2023-04-01T04:34:32;11.52;;;3.40;;
37299;SDS011;23184;51.902;12.836;2023-04-01T04:36:57;11.60;;;3.90;;
37299;SDS011;23184;51.902;12.836;2023-04-01T04:39:23;7.45;;;3.05;;
37299;SDS011;23184;51.902;12.836;2023-04-01T04:41:48;13.35;;;3.83;;
37299;SDS011;23184;51.902;12.836;2023-04-01T04:44:14;10.50;;;3.45;;
37299;SDS011;23184;51.902;12.836;2023-04-01T04:46:39;11.30;;;3.40;;
37299;SDS011;23184;51.902;12.836;2023-04-01T04:49:05;10.90;;;2.97;;
37299;SDS011;23184;51.902;12.836;2023-04-01T04:51:31;8.73;;;3.10;;
37299;SDS011;23184;51.902;12.836;2023-04-01T04:53:59;8.55;;;3.05;;
37299;SDS011;23184;51.902;12.836;2023-04-01T04:56:25;6.50;;;2.90;;
37299;SDS011;23184;51.902;12.836;2023-04-01T04:58:51;8.77;;;3.10;;
37299;SDS011;23184;51.902;12.836;2023-04-01T05:01:16;15.55;;;4.25;;
37299;SDS011;23184;51.902;12.836;2023-04-01T05:03:43;11.00;;;3.10;;
37299;SDS011;23184;51.902;12.836;2023-04-01T05:06:11;8.75;;;3.13;;
37299;SDS011;23184;51.902;12.836;2023-04-01T05:08:39;7.78;;;3.20;;
37299;SDS011;23184;51.902;12.836;2023-04-01T05:11:06;8.35;;;3.05;;
37299;SDS011;23184;51.902;12.836;2023-04-01T05:13:34;8.63;;;3.28;;
37299;SDS011;23184;51.902;12.836;2023-04-01T05:16:00;9.07;;;3.55;;
37299;SDS011;23184;51.902;12.836;2023-04-01T05:18:26;13.00;;;3.55;;
37299;SDS011;23184;51.902;12.836;2023-04-01T05:20:52;14.70;;;4.10;;
37299;SDS011;23184;51.902;12.836;2023-04-01T05:23:19;15.75;;;5.53;;
37299;SDS011;23184;51.902;12.836;2023-04-01T05:25:48;10.60;;;4.03;;
37299;SDS011;23184;51.902;12.836;2023-04-01T05:28:15;8.65;;;3.90;;
37299;SDS011;23184;51.902;12.836;2023-04-01T05:30:41;7.85;;;3.50;;
37299;SDS011;23184;51.902;12.836;2023-04-01T05:33:08;8.65;;;3.85;;
37299;SDS011;23184;51.902;12.836;2023-04-01T05:35:35;9.70;;;4.03;;
37299;SDS011;23184;51.902;12.836;2023-04-01T05:38:01;10.18;;;4.60;;
37299;SDS011;23184;51.902;12.836;2023-04-01T05:40:27;9.80;;;3.88;;
37299;SDS011;23184;51.902;12.836;2023-04-01T05:42:53;20.20;;;4.93;;
37299;SDS011;23184;51.902;12.836;2023-04-01T05:45:18;13.27;;;4.30;;
37299;SDS011;23184;51.902;12.836;2023-04-01T05:47:44;11.73;;;4.32;;
37299;SDS011;23184;51.902;12.836;2023-04-01T05:50:10;14.95;;;4.57;;
37299;SDS011;23184;51.902;12.836;2023-04-01T05:52:36;11.90;;;4.47;;
37299;SDS011;23184;51.902;12.836;2023-04-01T05:55:02;10.43;;;4.20;;
37299;SDS011;23184;51.902;12.836;2023-04-01T05:57:28;7.47;;;3.90;;
37299;SDS011;23184;51.902;12.836;2023-04-01T05:59:54;11.45;;;4.20;;
37299;SDS011;23184;51.902;12.836;2023-04-01T06:02:19;9.57;;;4.00;;
37299;SDS011;23184;51.902;12.836;2023-04-01T06:04:45;10.35;;;4.68;;
37299;SDS011;23184;51.902;12.836;2023-04-01T06:07:11;13.77;;;4.25;;
37299;SDS011;23184;51.902;12.836;2023-04-01T06:09:38;10.20;;;4.13;;
37299;SDS011;23184;51.902;12.836;2023-04-01T06:14:38;11.98;;;4.32;;
37299;SDS011;23184;51.902;12.836;2023-04-01T06:28:15;10.45;;;3.90;;
37299;SDS011;23184;51.902;12.836;2023-04-01T06:37:07;9.07;;;3.40;;
37299;SDS011;23184;51.902;12.836;2023-04-01T06:54:30;8.00;;;3.40;;
37299;SDS011;23184;51.902;12.836;2023-04-01T06:56:59;11.52;;;3.60;;
37299;SDS011;23184;51.902;12.836;2023-04-01T06:59:44;10.35;;;3.35;;
37299;SDS011;23184;51.902;12.836;2023-04-01T07:04:36;10.80;;;3.78;;
37299;SDS011;23184;51.902;12.836;2023-04-01T07:07:17;12.00;;;3.63;;
37299;SDS011;23184;51.902;12.836;2023-04-01T07:10:06;8.30;;;3.60;;
37299;SDS011;23184;51.902;12.836;2023-04-01T07:12:54;10.73;;;3.30;;
37299;SDS011;23184;51.902;12.836;2023-04-01T07:15:25;10.18;;;3.45;;
37299;SDS011;23184;51.902;12.836;2023-04-01T07:17:56;7.35;;;3.30;;
37299;SDS011;23184;51.902;12.836;2023-04-01T07:20:35;9.95;;;3.05;;
37299;SDS011;23184;51.902;12.836;2023-04-01T07:23:02;6.60;;;2.80;;
37299;SDS011;23184;51.902;12.836;2023-04-01T07:25:39;12.18;;;4.05;;
37299;SDS011;23184;51.902;12.836;2023-04-01T07:28:15;9.88;;;3.92;;
37299;SDS011;23184;51.902;12.836;2023-04-01T07:36:26;6.57;;;2.55;;
37299;SDS011;23184;51.902;12.836;2023-04-01T07:39:05;6.47;;;2.40;;
37299;SDS011;23184;51.902;12.836;2023-04-01T07:44:25;8.55;;;2.10;;
37299;SDS011;23184;51.902;12.836;2023-04-01T07:57:53;10.27;;;1.65;;
37299;SDS011;23184;51.902;12.836;2023-04-01T08:03:19;4.32;;;1.63;;
37299;SDS011;23184;51.902;12.836;2023-04-01T08:05:59;12.95;;;2.00;;
37299;SDS011;23184;51.902;12.836;2023-04-01T08:14:13;2.85;;;1.48;;
37299;SDS011;23184;51.902;12.836;2023-04-01T08:17:12;3.92;;;1.77;;
37299;SDS011;23184;51.902;12.836;2023-04-01T08:22:33;4.15;;;1.85;;
37299;SDS011;23184;51.902;12.836;2023-04-01T08:25:10;4.47;;;1.42;;
37299;SDS011;23184;51.902;12.836;2023-04-01T08:27:50;4.20;;;1.40;;
37299;SDS011;23184;51.902;12.836;2023-04-01T08:30:25;4.57;;;2.25;;
37299;SDS011;23184;51.902;12.836;2023-04-01T08:33:23;5.13;;;1.38;;
37299;SDS011;23184;51.902;12.836;2023-04-01T08:35:53;3.97;;;1.40;;
37299;SDS011;23184;51.902;12.836;2023-04-01T08:38:30;2.95;;;1.40;;
37299;SDS011;23184;51.902;12.836;2023-04-01T08:41:19;3.72;;;1.55;;
37299;SDS011;23184;51.902;12.836;2023-04-01T08:52:18;5.53;;;1.35;;
37299;SDS011;23184;51.902;12.836;2023-04-01T08:57:52;2.60;;;1.25;;
37299;SDS011;23184;51.902;12.836;2023-04-01T09:00:27;3.88;;;1.35;;
37299;SDS011;23184;51.902;12.836;2023-04-01T09:11:12;5.50;;;1.33;;
37299;SDS011;23184;51.902;12.836;2023-04-01T09:22:22;5.15;;;1.40;;
37299;SDS011;23184;51.902;12.836;2023-04-01T09:27:44;4.15;;;1.52;;
37299;SDS011;23184;51.902;12.836;2023-04-01T09:33:08;4.45;;;1.95;;
37299;SDS011;23184;51.902;12.836;2023-04-01T09:38:29;4.88;;;1.92;;
37299;SDS011;23184;51.902;12.836;2023-04-01T09:46:54;6.88;;;1.70;;
37299;SDS011;23184;51.902;12.836;2023-04-01T10:00:50;1.80;;;0.70;;
37299;SDS011;23184;51.902;12.836;2023-04-01T10:03:39;1.80;;;0.70;;
37299;SDS011;23184;51.902;12.836;2023-04-01T10:09:42;4.78;;;1.00;;
37299;SDS011;23184;51.902;12.836;2023-04-01T10:23:54;3.05;;;0.90;;
37299;SDS011;23184;51.902;12.836;2023-04-01T10:26:52;3.63;;;0.70;;
37299;SDS011;23184;51.902;12.836;2023-04-01T10:35:20;2.13;;;0.80;;
37299;SDS011;23184;51.902;12.836;2023-04-01T10:38:27;2.28;;;0.60;;
37299;SDS011;23184;51.902;12.836;2023-04-01T10:41:22;4.78;;;0.98;;
37299;SDS011;23184;51.902;12.836;2023-04-01T10:53:04;1.67;;;0.70;;
37299;SDS011;23184;51.902;12.836;2023-04-01T11:01:42;2.38;;;0.88;;
37299;SDS011;23184;51.902;12.836;2023-04-01T11:07:05;4.97;;;1.00;;
37299;SDS011;23184;51.902;12.836;2023-04-01T11:10:16;2.88;;;0.80;;
37299;SDS011;23184;51.902;12.836;2023-04-01T11:26:41;2.85;;;0.88;;
37299;SDS011;23184;51.902;12.836;2023-04-01T11:37:35;2.15;;;0.60;;
37299;SDS011;23184;51.902;12.836;2023-04-01T11:42:58;1.55;;;0.63;;
37299;SDS011;23184;51.902;12.836;2023-04-01T11:45:35;2.55;;;0.88;;
37299;SDS011;23184;51.902;12.836;2023-04-01T11:53:44;2.20;;;0.90;;
37299;SDS011;23184;51.902;12.836;2023-04-01T11:59:38;1.77;;;0.60;;
37299;SDS011;23184;51.902;12.836;2023-04-01T12:02:23;3.53;;;0.80;;
37299;SDS011;23184;51.902;12.836;2023-04-01T12:08:04;4.32;;;0.93;;
37299;SDS011;23184;51.902;12.836;2023-04-01T12:14:03;2.92;;;0.45;;
37299;SDS011;23184;51.902;12.836;2023-04-01T12:16:43;1.30;;;0.50;;
37299;SDS011;23184;51.902;12.836;2023-04-01T12:24:53;1.30;;;0.70;;
37299;SDS011;23184;51.902;12.836;2023-04-01T12:27:53;3.03;;;0.60;;
37299;SDS011;23184;51.902;12.836;2023-04-01T12:36:45;3.50;;;0.82;;
37299;SDS011;23184;51.902;12.836;2023-04-01T12:39:24;5.82;;;0.95;;
37299;SDS011;23184;51.902;12.836;2023-04-01T12:45:11;1.92;;;0.73;;
37299;SDS011;23184;51.902;12.836;2023-04-01T12:47:58;1.98;;;0.77;;
37299;SDS011;23184;51.902;12.836;2023-04-01T12:55:59;2.42;;;0.75;;
37299;SDS011;23184;51.902;12.836;2023-04-01T12:58:36;2.28;;;0.63;;
37299;SDS011;23184;51.902;12.836;2023-04-01T13:01:10;2.08;;;1.02;;
37299;SDS011;23184;51.902;12.836;2023-04-01T13:10:10;2.88;;;0.70;;
37299;SDS011;23184;51.902;12.836;2023-04-01T13:18:14;1.23;;;0.75;;
37299;SDS011;23184;51.902;12.836;2023-04-01T13:29:11;2.85;;;0.80;;
37299;SDS011;23184;51.902;12.836;2023-04-01T13:32:03;2.13;;;0.80;;
37299;SDS011;23184;51.902;12.836;2023-04-01T13:34:52;3.33;;;1.00;;
37299;SDS011;23184;51.902;12.836;2023-04-01T13:40:33;1.70;;;1.00;;
37299;SDS011;23184;51.902;12.836;2023-04-01T13:43:11;3.08;;;0.80;;
37299;SDS011;23184;51.902;12.836;2023-04-01T13:48:32;5.03;;;1.15;;
37299;SDS011;23184;51.902;12.836;2023-04-01T13:51:25;0.82;;;0.70;;
37299;SDS011;23184;51.902;12.836;2023-04-01T13:57:23;1.35;;;0.90;;
37299;SDS011;23184;51.902;12.836;2023-04-01T13:59:59;2.45;;;1.10;;
37299;SDS011;23184;51.902;12.836;2023-04-01T14:11:15;3.33;;;1.40;;
37299;SDS011;23184;51.902;12.836;2023-04-01T14:25:16;15.02;;;6.82;;
37299;SDS011;23184;51.902;12.836;2023-04-01T14:30:46;1.98;;;0.88;;
37299;SDS011;23184;51.902;12.836;2023-04-01T14:33:43;2.90;;;0.70;;
37299;SDS011;23184;51.902;12.836;2023-04-01T14:42:21;4.35;;;2.35;;
37299;SDS011;23184;51.902;12.836;2023-04-01T14:45:20;3.83;;;2.53;;
37299;SDS011;23184;51.902;12.836;2023-04-01T14:50:55;13.32;;;6.00;;
37299;SDS011;23184;51.902;12.836;2023-04-01T14:53:33;4.18;;;2.10;;
37299;SDS011;23184;51.902;12.836;2023-04-01T14:56:04;1.42;;;1.30;;
37299;SDS011;23184;51.902;12.836;2023-04-01T15:04:03;1.05;;;0.95;;
37299;SDS011;23184;51.902;12.836;2023-04-01T15:07:33;1.63;;;0.98;;
37299;SDS011;23184;51.902;12.836;2023-04-01T15:10:18;1.15;;;1.05;;
37299;SDS011;23184;51.902;12.836;2023-04-01T15:15:58;3.15;;;1.20;;
37299;SDS011;23184;51.902;12.836;2023-04-01T15:21:44;1.30;;;1.00;;
37299;SDS011;23184;51.902;12.836;2023-04-01T15:27:03;1.60;;;1.50;;
37299;SDS011;23184;51.902;12.836;2023-04-01T15:38:02;4.10;;;1.40;;
37299;SDS011;23184;51.902;12.836;2023-04-01T15:40:53;1.60;;;1.50;;
37299;SDS011;23184;51.902;12.836;2023-04-01T15:54:27;2.47;;;1.88;;
37299;SDS011;23184;51.902;12.836;2023-04-01T16:00:27;3.25;;;2.13;;
37299;SDS011;23184;51.902;12.836;2023-04-01T16:03:14;6.40;;;3.47;;
37299;SDS011;23184;51.902;12.836;2023-04-01T16:05:54;2.50;;;2.27;;
37299;SDS011;23184;51.902;12.836;2023-04-01T16:08:48;5.07;;;2.65;;
37299;SDS011;23184;51.902;12.836;2023-04-01T16:14:08;4.78;;;2.90;;
37299;SDS011;23184;51.902;12.836;2023-04-01T16:16:58;4.22;;;3.47;;
37299;SDS011;23184;51.902;12.836;2023-04-01T16:20:02;5.13;;;2.90;;
37299;SDS011;23184;51.902;12.836;2023-04-01T16:25:59;5.05;;;3.00;;
37299;SDS011;23184;51.902;12.836;2023-04-01T16:28:33;5.10;;;3.42;;
37299;SDS011;23184;51.902;12.836;2023-04-01T16:31:16;4.13;;;3.38;;
37299;SDS011;23184;51.902;12.836;2023-04-01T16:50:19;7.22;;;4.43;;
37299;SDS011;23184;51.902;12.836;2023-04-01T16:53:14;6.60;;;4.15;;
37299;SDS011;23184;51.902;12.836;2023-04-01T16:58:34;5.07;;;3.30;;
37299;SDS011;23184;51.902;12.836;2023-04-01T17:03:39;4.90;;;3.42;;
37299;SDS011;23184;51.902;12.836;2023-04-01T17:11:26;5.60;;;4.15;;
37299;SDS011;23184;51.902;12.836;2023-04-01T17:14:14;6.85;;;4.28;;
37299;SDS011;23184;51.902;12.836;2023-04-01T17:22:39;5.28;;;4.00;;
37299;SDS011;23184;51.902;12.836;2023-04-01T17:25:17;6.13;;;4.40;;
37299;SDS011;23184;51.902;12.836;2023-04-01T17:28:05;8.43;;;5.03;;
37299;SDS011;23184;51.902;12.836;2023-04-01T17:36:21;6.95;;;4.43;;
37299;SDS011;23184;51.902;12.836;2023-04-01T17:41:53;5.45;;;4.03;;
37299;SDS011;23184;51.902;12.836;2023-04-01T17:44:43;5.10;;;3.75;;
37299;SDS011;23184;51.902;12.836;2023-04-01T17:56:18;4.07;;;3.40;;
37299;SDS011;23184;51.902;12.836;2023-04-01T17:58:47;4.05;;;3.20;;
37299;SDS011;23184;51.902;12.836;2023-04-01T18:01:46;5.40;;;3.60;;
37299;SDS011;23184;51.902;12.836;2023-04-01T18:10:16;4.60;;;3.42;;
37299;SDS011;23184;51.902;12.836;2023-04-01T18:12:58;4.80;;;3.35;;
37299;SDS011;23184;51.902;12.836;2023-04-01T18:15:41;4.68;;;3.35;;
37299;SDS011;23184;51.902;12.836;2023-04-01T18:23:47;5.45;;;4.10;;
37299;SDS011;23184;51.902;12.836;2023-04-01T18:26:27;8.70;;;4.60;;
37299;SDS011;23184;51.902;12.836;2023-04-01T18:31:51;4.45;;;3.83;;
37299;SDS011;23184;51.902;12.836;2023-04-01T18:43:11;6.45;;;3.80;;
37299;SDS011;23184;51.902;12.836;2023-04-01T18:46:01;6.22;;;4.38;;
37299;SDS011;23184;51.902;12.836;2023-04-01T18:54:41;5.35;;;3.75;;
37299;SDS011;23184;51.902;12.836;2023-04-01T19:00:27;4.50;;;3.97;;
37299;SDS011;23184;51.902;12.836;2023-04-01T19:03:07;4.45;;;3.80;;
37299;SDS011;23184;51.902;12.836;2023-04-01T19:06:20;7.13;;;4.10;;
37299;SDS011;23184;51.902;12.836;2023-04-01T19:08:47;4.93;;;3.92;;
37299;SDS011;23184;51.902;12.836;2023-04-01T19:11:28;5.22;;;4.18;;
37299;SDS011;23184;51.902;12.836;2023-04-01T19:22:31;5.00;;;3.90;;
37299;SDS011;23184;51.902;12.836;2023-04-01T19:30:54;5.05;;;3.92;;
37299;SDS011;23184;51.902;12.836;2023-04-01T19:42:09;4.03;;;3.45;;
37299;SDS011;23184;51.902;12.836;2023-04-01T19:50:22;5.45;;;3.75;;
37299;SDS011;23184;51.902;12.836;2023-04-01T19:52:53;6.68;;;4.20;;
37299;SDS011;23184;51.902;12.836;2023-04-01T19:55:29;5.63;;;4.35;;
37299;SDS011;23184;51.902;12.836;2023-04-01T19:58:33;4.65;;;4.03;;
37299;SDS011;23184;51.902;12.836;2023-04-01T20:01:11;5.32;;;4.80;;
37299;SDS011;23184;51.902;12.836;2023-04-01T20:03:47;6.28;;;4.95;;
37299;SDS011;23184;51.902;12.836;2023-04-01T20:09:08;8.90;;;4.88;;
37299;SDS011;23184;51.902;12.836;2023-04-01T20:14:45;5.13;;;4.32;;
37299;SDS011;23184;51.902;12.836;2023-04-01T20:17:26;5.80;;;4.35;;
37299;SDS011;23184;51.902;12.836;2023-04-01T20:19:59;6.32;;;4.40;;
37299;SDS011;23184;51.902;12.836;2023-04-01T20:25:27;7.07;;;4.70;;
37299;SDS011;23184;51.902;12.836;2023-04-01T20:33:48;11.52;;;5.75;;
37299;SDS011;23184;51.902;12.836;2023-04-01T20:36:26;8.23;;;6.53;;
37299;SDS011;23184;51.902;12.836;2023-04-01T20:39:34;7.80;;;6.53;;
37299;SDS011;23184;51.902;12.836;2023-04-01T20:45:13;8.15;;;6.18;;
37299;SDS011;23184;51.902;12.836;2023-04-01T21:13:26;10.02;;;5.47;;
37299;SDS011;23184;51.902;12.836;2023-04-01T21:18:39;10.23;;;4.85;;
37299;SDS011;23184;51.902;12.836;2023-04-01T21:21:26;9.63;;;5.93;;
37299;SDS011;23184;51.902;12.836;2023-04-01T21:29:29;8.55;;;5.40;;
37299;SDS011;23184;51.902;12.836;2023-04-01T21:41:02;7.22;;;5.40;;
37299;SDS011;23184;51.902;12.836;2023-04-01T21:46:16;9.85;;;5.28;;
37299;SDS011;23184;51.902;12.836;2023-04-01T21:51:26;8.20;;;6.00;;
37299;SDS011;23184;51.902;12.836;2023-04-01T21:54:35;9.20;;;5.18;;
37299;SDS011;23184;51.902;12.836;2023-04-01T22:05:38;8.75;;;6.13;;
37299;SDS011;23184;51.902;12.836;2023-04-01T22:11:16;10.38;;;5.15;;
37299;SDS011;23184;51.902;12.836;2023-04-01T22:14:05;10.15;;;6.55;;
37299;SDS011;23184;51.902;12.836;2023-04-01T22:16:50;11.77;;;5.57;;
37299;SDS011;23184;51.902;12.836;2023-04-01T22:22:11;9.25;;;5.55;;
37299;SDS011;23184;51.902;12.836;2023-04-01T22:27:24;9.52;;;6.00;;
37299;SDS011;23184;51.902;12.836;2023-04-01T22:32:51;13.30;;;6.18;;
37299;SDS011;23184;51.902;12.836;2023-04-01T22:35:22;12.45;;;6.72;;
37299;SDS011;23184;51.902;12.836;2023-04-01T22:43:42;11.95;;;7.05;;
37299;SDS011;23184;51.902;12.836;2023-04-01T22:46:13;15.77;;;7.55;;
37299;SDS011;23184;51.902;12.836;2023-04-01T22:54:34;17.20;;;9.52;;
37299;SDS011;23184;51.902;12.836;2023-04-01T22:59:52;16.30;;;9.27;;
37299;SDS011;23184;51.902;12.836;2023-04-01T23:02:25;14.85;;;8.98;;
37299;SDS011;23184;51.902;12.836;2023-04-01T23:05:00;17.05;;;8.95;;
37299;SDS011;23184;51.902;12.836;2023-04-01T23:10:32;16.90;;;9.50;;
37299;SDS011;23184;51.902;12.836;2023-04-01T23:13:10;17.58;;;8.68;;
37299;SDS011;23184;51.902;12.836;2023-04-01T23:15:42;15.18;;;8.45;;
37299;SDS011;23184;51.902;12.836;2023-04-01T23:18:28;16.40;;;9.65;;
37299;SDS011;23184;51.902;12.836;2023-04-01T23:21:15;13.23;;;7.88;;
37299;SDS011;23184;51.902;12.836;2023-04-01T23:26:31;11.30;;;6.68;;
37299;SDS011;23184;51.902;12.836;2023-04-01T23:29:04;12.15;;;6.43;;
37299;SDS011;23184;51.902;12.836;2023-04-01T23:31:38;14.95;;;7.63;;
37299;SDS011;23184;51.902;12.836;2023-04-01T23:36:38;12.65;;;6.22;;
37299;SDS011;23184;51.902;12.836;2023-04-01T23:39:05;9.23;;;5.53;;
37299;SDS011;23184;51.902;12.836;2023-04-01T23:41:42;13.52;;;6.75;;
37299;SDS011;23184;51.902;12.836;2023-04-01T23:44:09;9.13;;;5.93;;
37299;SDS011;23184;51.902;12.836;2023-04-01T23:46:37;11.38;;;6.43;;
37299;SDS011;23184;51.902;12.836;2023-04-01T23:49:05;10.82;;;6.25;;
37299;SDS011;23184;51.902;12.836;2023-04-01T23:51:38;19.07;;;7.40;;
37299;SDS011;23184;51.902;12.836;2023-04-01T23:54:17;16.60;;;8.48;;
37299;SDS011;23184;51.902;12.836;2023-04-01T23:56:48;10.98;;;6.13;;
37299;SDS011;23184;51.902;12.836;2023-04-01T23:59:38;13.10;;;7.20;;
